Terminal Aerodrome Forecast
Issued by NWS Cheyenne, WY

Current Version | Previous Version | Text Only | Print | Product List | Glossary On
Versions: 1 2 3 4 5 6 7 8 9 10 11 12 13 14 15 16 17 18 19
000
FTUS45 KCYS 241120
TAFCYS
TAF
KCYS 241120Z 2412/2512 27007KT P6SM FEW150
     FM241500 28020G28KT P6SM SCT080
     FM250100 25010KT P6SM SCT080=

USA.gov is the U.S. government's official web portal to all federal, state and local government web resources and services.